< < Back
Terminal Aerodrome Forecast


Current Version              Previous Versions:   1  2  3  4  5  6  7  8  9  

Terminal Aerodrome Forecast

097
FTUS44 KBMX 281000 AAB
TAFBHM
TAF AMD
KBHM 281046Z 2811/2906 26008KT P6SM VCSH SCT015 BKN025
     FM281500 31012KT P6SM SCT030 BKN070
     FM290200 33008KT P6SM SKC=



Latest METAR

834
SAUS70 KWBC 290900 RRC
MTRBHM
METAR KBHM 290853Z 00000KT 10SM CLR 19/17 A3002 RMK AO2 SLP158 T01890167
55003


USA.gov is the U.S. government's official web portal to all federal, state and local government web resources and services.